Time;durP1;ratioP1;P1;durP2;ratioP2;P2;SDS_P1;SDS_P2;PMS_P1;PMS_P2;Temp;Humidity;BMP_temperature;BMP_pressure;BME280_temperature;BME280_humidity;BME280_pressure;Samples;Min_cycle;Max_cycle;Signal;HPM_P1;HPM_P2
2021/11/22 00:00:16;;;;;;;107.80;73.57;;;;;;;0.77;100.00;100767.75;4990383;28;20046;-80
2021/11/22 00:02:45;;;;;;;76.13;58.25;;;;;;;1.08;100.00;100770.16;4991935;28;20120;-80
2021/11/22 00:05:12;;;;;;;66.85;53.65;;;;;;;1.20;100.00;100757.72;4994666;28;20534;-80
2021/11/22 00:07:39;;;;;;;68.10;54.85;;;;;;;1.10;100.00;100749.91;4988427;28;20369;-80
2021/11/22 00:10:07;;;;;;;73.93;64.75;;;;;;;1.05;100.00;100762.59;4992572;28;20054;-80
2021/11/22 00:12:35;;;;;;;75.45;54.97;;;;;;;0.73;100.00;100757.72;4989978;28;20047;-80
2021/11/22 00:15:03;;;;;;;73.18;61.95;;;;;;;0.67;100.00;100756.50;4988308;28;20050;-80
2021/11/22 00:17:30;;;;;;;70.50;62.83;;;;;;;0.70;100.00;100751.00;4992880;28;20391;-79
2021/11/22 00:19:59;;;;;;;69.30;59.15;;;;;;;0.75;100.00;100753.16;4990680;28;20057;-80
2021/11/22 00:22:27;;;;;;;64.88;58.17;;;;;;;0.40;100.00;100758.06;4987084;28;20062;-80
2021/11/22 00:24:54;;;;;;;65.70;59.00;;;;;;;0.73;100.00;100757.72;4988123;28;20038;-80
2021/11/22 00:27:21;;;;;;;64.18;56.05;;;;;;;0.95;100.00;100759.19;4992284;28;20451;-80
2021/11/22 00:29:48;;;;;;;60.88;54.30;;;;;;;0.83;100.00;100761.97;4994660;28;20058;-80
2021/11/22 00:32:14;;;;;;;63.17;56.55;;;;;;;0.88;100.00;100762.38;4993808;28;20046;-80
2021/11/22 00:34:43;;;;;;;74.35;65.60;;;;;;;0.59;100.00;100766.84;4988829;28;20050;-79
2021/11/22 00:37:16;;;;;;;78.90;66.90;;;;;;;0.63;100.00;100768.19;4988579;28;20483;-79
2021/11/22 00:39:43;;;;;;;78.80;66.10;;;;;;;0.71;100.00;100767.50;4986882;28;20054;-80
2021/11/22 00:42:10;;;;;;;84.53;66.10;;;;;;;0.80;100.00;100770.09;4989757;28;20105;-79
2021/11/22 00:44:38;;;;;;;81.00;63.42;;;;;;;0.86;100.00;100764.31;4991832;28;20506;-80
2021/11/22 00:47:06;;;;;;;83.70;68.45;;;;;;;0.63;100.00;100762.97;4996008;28;20049;-79
2021/11/22 00:49:34;;;;;;;91.45;69.28;;;;;;;0.42;100.00;100761.34;4990892;28;20046;-79
2021/11/22 00:52:01;;;;;;;89.10;68.20;;;;;;;0.23;100.00;100763.97;4994508;28;20094;-78
2021/11/22 00:54:29;;;;;;;84.10;63.15;;;;;;;0.29;100.00;100754.75;4995601;28;20467;-79
2021/11/22 00:56:56;;;;;;;82.28;63.10;;;;;;;0.26;100.00;100752.41;4993686;28;20400;-79
2021/11/22 00:59:23;;;;;;;85.50;63.38;;;;;;;0.08;100.00;100755.69;4986493;28;20047;-78
2021/11/22 01:01:50;;;;;;;76.88;62.20;;;;;;;-0.35;100.00;100756.88;4983976;28;20102;-79
2021/11/22 01:04:17;;;;;;;71.30;63.70;;;;;;;-0.47;100.00;100753.56;4990451;28;20506;-80
2021/11/22 01:06:45;;;;;;;67.15;60.15;;;;;;;-0.67;100.00;100759.66;4991353;28;20495;-78
2021/11/22 01:09:12;;;;;;;73.03;64.95;;;;;;;-0.42;100.00;100755.78;4991821;28;20105;-79
2021/11/22 01:11:41;;;;;;;69.72;62.85;;;;;;;-0.61;100.00;100759.13;4991732;28;20054;-78
2021/11/22 01:14:08;;;;;;;77.53;69.28;;;;;;;-0.30;100.00;100754.72;4991893;28;20058;-79
2021/11/22 01:16:38;;;;;;;70.07;59.75;;;;;;;-0.48;100.00;100754.53;4992251;28;20474;-78
2021/11/22 01:19:06;;;;;;;67.40;56.20;;;;;;;-0.53;100.00;100759.31;4987624;28;20050;-78
2021/11/22 01:21:34;;;;;;;70.10;58.28;;;;;;;-0.34;100.00;100753.31;4990099;28;20065;-78
2021/11/22 01:24:01;;;;;;;67.15;57.95;;;;;;;-0.30;100.00;100749.50;4995730;28;20054;-78
2021/11/22 01:26:27;;;;;;;69.57;62.38;;;;;;;-0.36;100.00;100751.81;4989987;28;20057;-80
2021/11/22 01:28:56;;;;;;;65.57;58.70;;;;;;;-0.61;100.00;100755.72;4990230;28;20618;-77
2021/11/22 01:31:22;;;;;;;71.53;64.28;;;;;;;-0.32;100.00;100750.56;4991325;28;20048;-78
2021/11/22 01:33:49;;;;;;;64.50;57.70;;;;;;;-0.07;100.00;100744.84;4988140;28;20120;-78
2021/11/22 01:36:16;;;;;;;67.20;60.00;;;;;;;-0.22;100.00;100761.03;4991772;28;20046;-78
2021/11/22 01:38:43;;;;;;;68.05;61.13;;;;;;;-0.41;100.00;100744.38;4993757;28;20054;-79
2021/11/22 01:41:10;;;;;;;60.35;53.80;;;;;;;-0.29;100.00;100747.69;4987112;28;20109;-81
2021/11/22 01:43:36;;;;;;;61.38;53.00;;;;;;;-0.91;100.00;100749.56;4992047;28;20051;-78
2021/11/22 01:46:04;;;;;;;64.45;57.63;;;;;;;-0.64;100.00;100746.34;4989448;28;20482;-79
2021/11/22 01:48:33;;;;;;;64.05;57.65;;;;;;;-0.36;100.00;100741.38;4991478;28;20185;-80
2021/11/22 01:50:59;;;;;;;69.07;62.03;;;;;;;-0.73;100.00;100745.41;4995236;28;20435;-79
2021/11/22 01:53:26;;;;;;;73.18;65.53;;;;;;;-0.58;100.00;100745.00;4992812;28;20051;-78
2021/11/22 01:55:53;;;;;;;71.00;64.03;;;;;;;-0.46;100.00;100738.72;4989934;28;20074;-79
2021/11/22 01:58:20;;;;;;;65.97;59.50;;;;;;;-0.17;100.00;100732.75;4993020;28;20530;-78
2021/11/22 02:00:50;;;;;;;63.13;57.08;;;;;;;-0.30;100.00;100743.44;4981907;28;20117;-80
2021/11/22 02:03:19;;;;;;;69.35;62.45;;;;;;;-0.38;100.00;100735.47;4985920;28;20077;-80
2021/11/22 02:05:46;;;;;;;62.33;55.92;;;;;;;-0.36;100.00;100739.59;4997971;28;20046;-78
2021/11/22 02:08:14;;;;;;;63.38;57.00;;;;;;;-0.47;100.00;100744.91;4994425;28;20054;-80
2021/11/22 02:10:41;;;;;;;66.50;59.53;;;;;;;-0.61;100.00;100748.69;4989537;28;20426;-78
2021/11/22 02:13:08;;;;;;;76.18;68.13;;;;;;;-0.52;100.00;100750.50;4997872;28;20112;-80
2021/11/22 02:15:35;;;;;;;69.60;62.22;;;;;;;-0.85;100.00;100745.59;4998373;28;20063;-80
2021/11/22 02:18:02;;;;;;;75.57;67.35;;;;;;;-0.72;100.00;100746.22;4996685;28;20395;-79
2021/11/22 02:20:32;;;;;;;71.97;64.57;;;;;;;-0.74;100.00;100743.72;4989350;28;20113;-80
2021/11/22 02:23:01;;;;;;;70.82;63.53;;;;;;;-0.81;100.00;100744.41;4992494;28;20476;-82
2021/11/22 02:25:30;;;;;;;87.50;77.95;;;;;;;-0.80;100.00;100751.25;4989033;28;20466;-81
2021/11/22 02:27:58;;;;;;;86.70;77.80;;;;;;;-0.72;100.00;100748.81;4989587;28;20054;-79
2021/11/22 02:30:30;;;;;;;79.97;69.60;;;;;;;-0.75;100.00;100752.53;4996366;28;20050;-78
2021/11/22 02:32:58;;;;;;;86.78;72.57;;;;;;;-0.79;100.00;100745.88;4989444;28;20700;-79
2021/11/22 02:35:25;;;;;;;106.10;80.20;;;;;;;-0.87;100.00;100742.31;4996029;28;20069;-78
2021/11/22 02:37:54;;;;;;;106.55;78.65;;;;;;;-0.92;100.00;100748.72;4989016;28;20061;-79
2021/11/22 02:40:21;;;;;;;98.03;75.55;;;;;;;-0.71;100.00;100750.47;4998161;28;20038;-79
2021/11/22 02:42:48;;;;;;;88.40;74.22;;;;;;;-0.98;100.00;100745.81;4994787;28;20491;-79
2021/11/22 02:45:17;;;;;;;69.07;62.33;;;;;;;-0.39;100.00;100749.44;4990629;28;20121;-80
2021/11/22 02:47:45;;;;;;;66.03;59.47;;;;;;;-0.24;100.00;100754.16;4993009;28;20054;-80
2021/11/22 02:50:14;;;;;;;69.40;62.90;;;;;;;-0.02;100.00;100747.88;4997218;28;20050;-79
2021/11/22 02:52:41;;;;;;;74.80;67.53;;;;;;;-0.12;100.00;100762.72;4996680;28;20396;-80
2021/11/22 02:55:13;;;;;;;69.72;62.75;;;;;;;-0.31;100.00;100758.25;4990811;28;20069;-80
2021/11/22 02:57:39;;;;;;;69.82;63.13;;;;;;;-0.46;100.00;100763.03;4996825;28;20091;-78
2021/11/22 03:03:02;;;;;;;61.72;55.33;;;;;;;-0.42;100.00;100768.84;4962657;23;20059;-80
2021/11/22 03:05:29;;;;;;;71.00;63.45;;;;;;;-0.50;100.00;100772.09;4960725;28;20047;-79
2021/11/22 03:07:57;;;;;;;75.38;68.20;;;;;;;-0.74;100.00;100775.03;4959742;28;20070;-79
2021/11/22 03:10:28;;;;;;;94.70;80.32;;;;;;;-0.81;100.00;100768.69;4964456;28;20057;-80
2021/11/22 03:12:55;;;;;;;96.15;84.03;;;;;;;-1.19;100.00;100771.91;4958276;28;20046;-80
2021/11/22 03:15:23;;;;;;;80.47;73.28;;;;;;;-1.10;100.00;100776.34;4963660;28;20051;-80
2021/11/22 03:17:50;;;;;;;72.55;65.63;;;;;;;-1.14;100.00;100771.53;4965237;28;20195;-79
2021/11/22 03:20:19;;;;;;;72.60;65.68;;;;;;;-1.17;100.00;100770.84;4954935;28;20487;-80
2021/11/22 03:22:47;;;;;;;74.20;66.50;;;;;;;-1.22;100.00;100770.38;4967125;28;20431;-80
2021/11/22 03:25:16;;;;;;;77.43;70.18;;;;;;;-1.24;100.00;100774.94;4964213;28;20044;-79
2021/11/22 03:27:45;;;;;;;67.60;60.70;;;;;;;-1.22;100.00;100778.22;4965578;28;20071;-81
2021/11/22 03:30:14;;;;;;;65.95;58.78;;;;;;;-1.07;100.00;100783.94;4960887;28;20046;-80
2021/11/22 03:32:41;;;;;;;72.32;64.80;;;;;;;-1.11;100.00;100779.94;4960296;28;20059;-80
2021/11/22 03:35:09;;;;;;;73.85;66.43;;;;;;;-1.04;100.00;100782.84;4966223;28;20114;-80
2021/11/22 03:37:36;;;;;;;67.97;60.55;;;;;;;-0.78;100.00;100780.66;4962691;28;20289;-80
2021/11/22 03:40:04;;;;;;;68.38;60.97;;;;;;;-0.88;100.00;100787.59;4962513;28;20397;-80
2021/11/22 03:42:37;;;;;;;63.95;57.10;;;;;;;-0.95;100.00;100790.72;4958639;28;20047;-79
2021/11/22 03:45:06;;;;;;;68.75;60.28;;;;;;;-0.84;100.00;100791.59;4973113;28;20042;-80
2021/11/22 03:47:33;;;;;;;67.95;60.92;;;;;;;-0.79;100.00;100795.44;4962155;28;20483;-80
2021/11/22 03:50:00;;;;;;;70.82;63.30;;;;;;;-0.99;100.00;100788.50;4960252;28;20044;-82
2021/11/22 03:52:27;;;;;;;87.78;78.43;;;;;;;-1.39;100.00;100790.06;4967138;28;20447;-80
2021/11/22 03:54:54;;;;;;;71.32;63.58;;;;;;;-1.61;100.00;100790.13;4964517;28;20051;-80
2021/11/22 03:57:21;;;;;;;77.47;69.55;;;;;;;-1.64;100.00;100793.00;4963607;28;20117;-79
2021/11/22 03:59:48;;;;;;;76.57;69.20;;;;;;;-1.51;100.00;100790.22;4960159;28;20076;-79
2021/11/22 04:02:16;;;;;;;77.07;70.07;;;;;;;-1.42;100.00;100798.13;4963069;28;20093;-80
2021/11/22 04:04:43;;;;;;;70.43;63.88;;;;;;;-1.40;100.00;100788.38;4963634;28;20114;-80
2021/11/22 04:07:10;;;;;;;71.43;64.88;;;;;;;-1.44;100.00;100796.59;4963102;28;20050;-78
2021/11/22 04:09:36;;;;;;;74.05;66.75;;;;;;;-1.53;100.00;100797.34;4963932;28;20055;-80
2021/11/22 04:12:04;;;;;;;75.70;67.65;;;;;;;-1.59;100.00;100805.66;4961709;28;20051;-79
2021/11/22 04:14:31;;;;;;;74.65;67.10;;;;;;;-1.74;100.00;100803.34;4956893;28;20555;-79
2021/11/22 04:16:57;;;;;;;75.18;64.20;;;;;;;-1.78;100.00;100807.16;4960916;28;20115;-79
2021/11/22 04:19:25;;;;;;;78.05;70.38;;;;;;;-1.44;100.00;100807.00;4956976;28;20113;-80
2021/11/22 04:21:52;;;;;;;73.97;66.68;;;;;;;-1.31;100.00;100802.44;4954341;28;20080;-80
2021/11/22 04:24:19;;;;;;;77.82;70.60;;;;;;;-1.36;100.00;100806.38;4959660;28;20047;-80
2021/11/22 04:26:46;;;;;;;68.38;59.42;;;;;;;-1.69;100.00;100798.59;4963974;28;20055;-79
2021/11/22 04:29:12;;;;;;;67.65;60.38;;;;;;;-1.52;100.00;100801.59;4965585;28;20117;-80
2021/11/22 04:31:39;;;;;;;69.53;62.42;;;;;;;-1.65;100.00;100802.59;4958920;28;20057;-80
2021/11/22 04:34:06;;;;;;;68.82;62.10;;;;;;;-1.58;100.00;100809.91;4957892;28;20051;-80
2021/11/22 04:36:34;;;;;;;75.82;68.45;;;;;;;-1.42;100.00;100802.50;4969501;28;20046;-81
2021/11/22 04:39:01;;;;;;;71.13;64.18;;;;;;;-1.35;100.00;100814.06;4968756;28;20064;-82
2021/11/22 04:41:27;;;;;;;68.03;61.25;;;;;;;-1.43;100.00;100816.47;4961552;28;20397;-79
2021/11/22 04:43:54;;;;;;;70.10;63.60;;;;;;;-1.42;100.00;100805.94;4959459;28;20048;-80
2021/11/22 04:46:21;;;;;;;71.85;65.38;;;;;;;-1.58;100.00;100812.50;4963940;28;20062;-79
2021/11/22 04:48:48;;;;;;;72.28;65.53;;;;;;;-1.88;100.00;100820.06;4964940;28;20054;-79
2021/11/22 04:51:15;;;;;;;73.00;66.15;;;;;;;-1.79;100.00;100821.09;4963451;28;20043;-80
2021/11/22 04:53:43;;;;;;;73.28;66.00;;;;;;;-1.71;100.00;100823.09;4959496;28;20459;-81
2021/11/22 04:56:10;;;;;;;67.95;61.47;;;;;;;-1.83;100.00;100824.91;4959097;28;20558;-80
2021/11/22 04:58:36;;;;;;;67.10;60.67;;;;;;;-1.67;100.00;100827.94;4967326;28;20059;-80
2021/11/22 05:01:03;;;;;;;64.22;57.75;;;;;;;-1.63;100.00;100826.75;4963992;28;20359;-80
2021/11/22 05:03:30;;;;;;;71.05;64.10;;;;;;;-1.78;100.00;100829.78;4954813;28;20058;-80
2021/11/22 05:05:57;;;;;;;71.13;64.07;;;;;;;-1.85;100.00;100819.00;4963833;28;20134;-79
2021/11/22 05:08:31;;;;;;;75.75;68.50;;;;;;;-1.75;100.00;100819.94;4963214;28;20051;-80
2021/11/22 05:10:59;;;;;;;75.15;67.90;;;;;;;-1.58;100.00;100820.31;4958637;28;20061;-79
2021/11/22 05:13:26;;;;;;;77.47;70.25;;;;;;;-1.51;100.00;100827.53;4962909;28;20062;-79
2021/11/22 05:15:53;;;;;;;70.47;63.40;;;;;;;-1.96;100.00;100829.47;4962488;28;20038;-79
2021/11/22 05:18:19;;;;;;;77.15;69.68;;;;;;;-1.85;100.00;100834.63;4957935;28;20520;-80
2021/11/22 05:20:46;;;;;;;77.43;69.80;;;;;;;-1.49;100.00;100835.22;4956940;28;20118;-80
2021/11/22 05:23:14;;;;;;;81.00;73.38;;;;;;;-1.76;100.00;100830.44;4958535;28;20047;-79
2021/11/22 05:25:41;;;;;;;69.40;62.58;;;;;;;-1.77;100.00;100834.00;4963606;28;20050;-81
2021/11/22 05:28:10;;;;;;;66.32;59.45;;;;;;;-1.83;100.00;100840.53;4958356;28;20058;-80
2021/11/22 05:30:37;;;;;;;64.50;58.17;;;;;;;-1.50;100.00;100841.38;4959122;28;20138;-80
2021/11/22 05:33:05;;;;;;;64.75;58.20;;;;;;;-1.29;100.00;100851.84;4872191;28;20103;-79
2021/11/22 05:35:34;;;;;;;69.47;62.53;;;;;;;-1.44;100.00;100848.69;4912334;28;20102;-79
2021/11/22 05:38:00;;;;;;;65.72;59.22;;;;;;;-1.42;100.00;100854.63;4962538;28;20126;-79
2021/11/22 05:40:28;;;;;;;63.13;56.63;;;;;;;-1.18;100.00;100852.59;4966273;28;20054;-81
2021/11/22 05:42:55;;;;;;;63.28;56.65;;;;;;;-1.35;100.00;100866.19;4968904;28;20187;-79
2021/11/22 05:45:23;;;;;;;66.57;59.92;;;;;;;-0.99;100.00;100859.72;4962384;28;20476;-80
2021/11/22 05:47:50;;;;;;;64.07;58.03;;;;;;;-1.28;100.00;100874.31;4969411;28;20046;-80
2021/11/22 05:50:18;;;;;;;70.05;62.90;;;;;;;-0.63;100.00;100873.25;4965171;28;20130;-79
2021/11/22 05:52:50;;;;;;;77.63;69.20;;;;;;;-0.58;100.00;100881.50;4966403;28;20050;-80
2021/11/22 05:55:31;;;;;;;72.82;65.05;;;;;;;-0.27;100.00;100882.34;4960637;28;20054;-80
2021/11/22 05:57:58;;;;;;;78.80;64.95;;;;;;;0.31;100.00;100886.09;4959010;28;20137;-79
2021/11/22 06:00:26;;;;;;;87.85;71.00;;;;;;;0.88;100.00;100890.53;4969708;28;20047;-79
2021/11/22 06:03:00;;;;;;;79.40;67.35;;;;;;;1.10;100.00;100892.00;4962076;28;21167;-80
2021/11/22 06:05:26;;;;;;;87.57;65.75;;;;;;;1.20;100.00;100899.84;4966614;28;20062;-80
2021/11/22 06:07:53;;;;;;;97.30;72.30;;;;;;;1.52;100.00;100904.72;4966341;28;20051;-79
2021/11/22 06:10:20;;;;;;;92.25;75.03;;;;;;;1.66;100.00;100900.81;4961017;28;20620;-80
2021/11/22 06:12:47;;;;;;;93.40;81.75;;;;;;;1.69;100.00;100903.13;4965799;28;20110;-79
2021/11/22 06:15:14;;;;;;;85.55;76.25;;;;;;;2.15;100.00;100898.81;4967070;28;20105;-79
2021/11/22 06:17:42;;;;;;;96.45;83.03;;;;;;;2.22;100.00;100899.88;4961865;28;20054;-81
2021/11/22 06:20:11;;;;;;;92.85;80.65;;;;;;;3.58;100.00;100908.41;4972193;28;20054;-78
2021/11/22 06:22:38;;;;;;;94.38;84.63;;;;;;;3.02;100.00;100907.81;4959236;28;20055;-79
2021/11/22 06:25:07;;;;;;;92.68;83.28;;;;;;;3.25;100.00;100899.50;4973458;28;20047;-79
2021/11/22 06:27:34;;;;;;;100.18;89.68;;;;;;;3.54;100.00;100907.88;4961411;28;20388;-80
2021/11/22 06:30:01;;;;;;;102.80;92.10;;;;;;;3.65;100.00;100906.78;4966028;28;20421;-79
2021/11/22 06:32:30;;;;;;;96.47;86.65;;;;;;;3.90;100.00;100916.44;4967407;28;20385;-79
2021/11/22 06:34:59;;;;;;;85.45;76.72;;;;;;;3.75;100.00;100911.91;4968670;28;20138;-80
2021/11/22 06:37:28;;;;;;;85.57;76.65;;;;;;;4.26;100.00;100918.03;4966217;28;20051;-78
2021/11/22 06:39:55;;;;;;;86.55;77.20;;;;;;;4.41;100.00;100913.81;4964998;28;20074;-78
2021/11/22 06:42:22;;;;;;;91.88;82.43;;;;;;;4.95;100.00;100916.84;4962777;28;20098;-79
2021/11/22 06:44:50;;;;;;;85.07;76.68;;;;;;;5.07;100.00;100917.34;4962437;28;20047;-79
2021/11/22 06:47:17;;;;;;;89.88;80.40;;;;;;;5.36;100.00;100908.94;4963391;28;20050;-79
2021/11/22 06:49:44;;;;;;;89.40;80.78;;;;;;;4.65;100.00;100922.75;4960827;28;20133;-78
2021/11/22 06:52:13;;;;;;;86.97;78.40;;;;;;;5.25;100.00;100917.19;4969291;28;20526;-79
2021/11/22 06:54:40;;;;;;;91.95;82.75;;;;;;;5.39;100.00;100921.78;4962940;28;20097;-81
2021/11/22 06:57:07;;;;;;;86.78;77.47;;;;;;;5.88;100.00;100918.22;4957402;28;20048;-80
2021/11/22 06:59:34;;;;;;;104.88;82.20;;;;;;;5.56;100.00;100914.66;4958621;28;20047;-80
2021/11/22 07:02:12;;;;;;;91.75;82.45;;;;;;;6.74;100.00;100916.47;4961341;28;20076;-79
2021/11/22 07:04:38;;;;;;;90.78;81.93;;;;;;;6.62;100.00;100919.50;4962898;28;20125;-78
2021/11/22 07:07:05;;;;;;;85.10;77.00;;;;;;;6.26;100.00;100916.56;4964081;28;20535;-78
2021/11/22 07:09:34;;;;;;;88.40;79.55;;;;;;;6.92;100.00;100924.09;4962969;28;20497;-79
2021/11/22 07:12:00;;;;;;;83.45;75.22;;;;;;;6.74;100.00;100924.38;4965993;28;20059;-79
2021/11/22 07:14:28;;;;;;;82.78;74.22;;;;;;;7.32;100.00;100915.00;4954899;28;20055;-80
2021/11/22 07:16:54;;;;;;;83.97;75.68;;;;;;;7.13;100.00;100918.97;4957958;28;20452;-78
2021/11/22 07:19:21;;;;;;;83.03;74.57;;;;;;;7.19;100.00;100920.06;4958069;28;20118;-78
2021/11/22 07:21:48;;;;;;;77.78;70.18;;;;;;;8.07;100.00;100929.06;4962005;28;20047;-81
2021/11/22 07:24:15;;;;;;;77.80;70.30;;;;;;;8.31;100.00;100925.28;4955610;28;20098;-79
2021/11/22 07:26:43;;;;;;;76.57;69.28;;;;;;;8.64;100.00;100931.81;4962664;28;20468;-80
2021/11/22 07:29:10;;;;;;;80.72;73.03;;;;;;;8.77;100.00;100925.81;4958061;28;20448;-80
2021/11/22 07:31:37;;;;;;;75.78;68.57;;;;;;;9.02;100.00;100933.41;4958857;28;20067;-80
2021/11/22 07:34:04;;;;;;;81.70;74.38;;;;;;;8.97;100.00;100943.75;4958612;28;20054;-80
2021/11/22 07:36:31;;;;;;;81.55;73.78;;;;;;;9.36;100.00;100935.31;4966607;28;20067;-80
2021/11/22 07:38:58;;;;;;;84.35;76.43;;;;;;;9.37;100.00;100932.44;4959717;28;20059;-78
2021/11/22 07:41:24;;;;;;;78.82;72.07;;;;;;;9.43;100.00;100949.44;4962256;28;20106;-80
2021/11/22 07:43:53;;;;;;;77.20;70.32;;;;;;;9.48;100.00;100940.91;4968021;28;20464;-78
2021/11/22 07:46:19;;;;;;;74.32;67.53;;;;;;;9.54;100.00;100935.66;4957563;28;20047;-79
2021/11/22 07:48:46;;;;;;;75.93;68.75;;;;;;;9.81;100.00;100936.63;4960348;28;20468;-80
2021/11/22 07:51:13;;;;;;;78.13;70.65;;;;;;;10.76;100.00;100937.63;4967214;28;20050;-80
2021/11/22 07:53:40;;;;;;;80.07;72.40;;;;;;;11.13;100.00;100940.72;4960957;28;20059;-79
2021/11/22 07:56:07;;;;;;;84.03;76.55;;;;;;;11.14;100.00;100945.06;4959698;28;20047;-80
2021/11/22 07:58:35;;;;;;;81.22;73.95;;;;;;;10.39;100.00;100949.59;4960786;28;20051;-80
2021/11/22 08:01:03;;;;;;;80.15;73.05;;;;;;;11.77;100.00;100938.44;4965505;28;20102;-80
2021/11/22 08:03:30;;;;;;;83.13;75.50;;;;;;;12.29;100.00;100944.66;4960938;28;20055;-79
2021/11/22 08:05:58;;;;;;;84.03;75.85;;;;;;;11.74;100.00;100953.00;4959409;28;20481;-79
2021/11/22 08:08:29;;;;;;;84.82;77.18;;;;;;;12.41;100.00;100953.63;4960994;28;20047;-81
2021/11/22 08:11:06;;;;;;;77.25;69.78;;;;;;;13.00;100.00;100959.63;4962242;28;20510;-80
2021/11/22 08:13:34;;;;;;;79.82;72.05;;;;;;;13.06;100.00;100966.75;4957544;28;20055;-79
2021/11/22 08:16:05;;;;;;;79.63;71.30;;;;;;;13.41;100.00;100959.16;4957677;28;20055;-79
2021/11/22 08:18:34;;;;;;;90.20;81.18;;;;;;;13.36;100.00;100958.97;4960129;28;20446;-80
2021/11/22 08:21:02;;;;;;;85.55;76.95;;;;;;;13.59;100.00;100952.22;4958464;28;20051;-79
2021/11/22 08:23:29;;;;;;;82.47;74.57;;;;;;;13.75;100.00;100943.63;4961025;28;20492;-81
2021/11/22 08:25:56;;;;;;;91.15;81.13;;;;;;;13.89;100.00;100944.31;4958842;28;20047;-82
2021/11/22 08:28:23;;;;;;;84.15;76.65;;;;;;;14.32;100.00;100952.22;4959151;28;20111;-81
2021/11/22 08:30:50;;;;;;;85.78;77.82;;;;;;;14.78;100.00;100944.66;4963840;28;20085;-79
2021/11/22 08:33:18;;;;;;;78.47;71.57;;;;;;;14.51;100.00;100941.50;4957565;28;20539;-80
2021/11/22 08:35:46;;;;;;;80.32;72.93;;;;;;;15.22;100.00;100943.34;4957784;28;20055;-80
2021/11/22 08:38:12;;;;;;;77.47;70.53;;;;;;;14.36;100.00;100937.38;4967586;28;20460;-79
2021/11/22 08:40:41;;;;;;;87.15;79.30;;;;;;;14.97;100.00;100946.19;4959245;28;20376;-80
2021/11/22 08:43:10;;;;;;;86.22;78.85;;;;;;;15.85;100.00;100939.16;4957945;28;20538;-80
2021/11/22 08:45:37;;;;;;;84.78;77.43;;;;;;;15.97;100.00;100939.16;4957788;28;20403;-81
2021/11/22 08:48:04;;;;;;;84.90;77.38;;;;;;;15.64;100.00;100939.75;4959675;28;20559;-81
2021/11/22 08:50:32;;;;;;;85.90;78.45;;;;;;;15.63;100.00;100938.13;4969691;28;20051;-80
2021/11/22 08:53:00;;;;;;;79.40;72.35;;;;;;;16.31;100.00;100931.25;4959369;28;20121;-80
2021/11/22 08:55:27;;;;;;;79.90;72.72;;;;;;;16.44;100.00;100936.34;4960018;28;20051;-80
2021/11/22 08:57:54;;;;;;;76.22;69.43;;;;;;;16.69;100.00;100934.13;4960452;28;20047;-79
2021/11/22 09:00:26;;;;;;;88.45;80.57;;;;;;;17.29;100.00;100932.72;4964662;28;20047;-80
2021/11/22 09:02:52;;;;;;;83.25;75.75;;;;;;;17.58;100.00;100936.13;4963501;28;20061;-81
2021/11/22 09:05:26;;;;;;;82.53;75.32;;;;;;;17.46;100.00;100930.03;4966493;28;20046;-80
2021/11/22 09:07:55;;;;;;;82.57;75.35;;;;;;;17.04;100.00;100918.91;4960466;28;20122;-80
2021/11/22 09:10:23;;;;;;;87.13;79.43;;;;;;;17.05;100.00;100921.34;4960338;28;20480;-81
2021/11/22 09:12:50;;;;;;;87.32;79.80;;;;;;;17.76;100.00;100908.16;4957731;28;20047;-80
2021/11/22 09:15:17;;;;;;;79.43;72.03;;;;;;;18.15;100.00;100899.22;4962990;28;20114;-80
2021/11/22 09:17:44;;;;;;;77.07;70.05;;;;;;;17.81;100.00;100899.38;4964616;28;20146;-80
2021/11/22 09:20:11;;;;;;;81.15;74.13;;;;;;;17.61;100.00;100907.97;4958613;28;20126;-80
2021/11/22 09:22:39;;;;;;;74.45;67.85;;;;;;;17.89;100.00;100906.19;4968873;28;20055;-79
2021/11/22 09:25:09;;;;;;;74.50;68.00;;;;;;;18.49;100.00;100911.44;4955292;28;20495;-82
2021/11/22 09:27:36;;;;;;;73.40;66.65;;;;;;;17.92;100.00;100911.88;4953719;28;20429;-80
2021/11/22 09:30:05;;;;;;;74.50;67.68;;;;;;;17.63;99.53;100901.25;4959517;28;20129;-80
2021/11/22 09:32:33;;;;;;;78.95;72.05;;;;;;;18.30;100.00;100908.28;4958990;28;20062;-80
2021/11/22 09:35:01;;;;;;;81.00;74.03;;;;;;;18.73;97.01;100901.22;4966712;28;20054;-80
2021/11/22 09:37:28;;;;;;;80.32;73.05;;;;;;;18.34;96.70;100899.72;4962133;28;20090;-81
2021/11/22 09:39:56;;;;;;;75.82;69.22;;;;;;;18.85;100.00;100902.91;4954737;28;20051;-80
2021/11/22 09:42:24;;;;;;;78.68;71.70;;;;;;;19.02;94.56;100894.72;4964001;28;20047;-81
2021/11/22 09:44:51;;;;;;;77.40;70.38;;;;;;;20.01;88.80;100902.03;4960603;28;20059;-80
2021/11/22 09:47:17;;;;;;;75.10;68.03;;;;;;;18.99;90.75;100898.72;4958968;28;20043;-81
2021/11/22 09:49:44;;;;;;;75.57;68.78;;;;;;;19.29;92.69;100892.75;4957662;28;20472;-80
2021/11/22 09:52:11;;;;;;;96.10;79.13;;;;;;;19.49;87.95;100899.34;4971045;28;20062;-81
2021/11/22 09:54:38;;;;;;;92.43;82.85;;;;;;;19.27;93.39;100892.19;4957611;28;20050;-80
2021/11/22 09:57:05;;;;;;;93.38;84.10;;;;;;;19.13;92.94;100891.03;4957156;28;20508;-80
2021/11/22 09:59:33;;;;;;;94.97;85.50;;;;;;;18.79;98.31;100890.47;4963860;28;20047;-81
2021/11/22 10:02:00;;;;;;;87.22;78.22;;;;;;;19.05;91.15;100884.22;4959042;28;20125;-80
2021/11/22 10:04:32;;;;;;;79.63;71.25;;;;;;;20.27;89.55;100875.13;4937561;29;20048;-81
2021/11/22 10:07:00;;;;;;;77.43;70.23;;;;;;;19.86;82.58;100875.84;4936631;29;20052;-81
2021/11/22 10:09:41;;;;;;;73.97;66.78;;;;;;;19.54;89.10;100867.84;4934650;29;20063;-81
2021/11/22 10:12:11;;;;;;;79.55;72.45;;;;;;;20.00;80.75;100868.06;4938910;29;20087;-81
2021/11/22 10:14:42;;;;;;;78.53;70.75;;;;;;;19.17;84.89;100874.09;4939638;29;20056;-82
2021/11/22 10:17:30;;;;;;;78.13;70.72;;;;;;;19.49;89.65;100869.72;4942687;28;20051;-81
2021/11/22 10:20:29;;;;;;;78.00;70.65;;;;;;;19.69;90.08;100861.75;4933793;29;20047;-79
2021/11/22 10:23:00;;;;;;;73.88;66.85;;;;;;;20.28;81.12;100863.28;4936800;29;20043;-80
2021/11/22 10:25:32;;;;;;;78.38;70.95;;;;;;;20.68;66.19;100857.13;4944441;28;20048;-79
2021/11/22 10:28:05;;;;;;;77.15;70.75;;;;;;;21.23;56.71;100865.44;4938631;29;20083;-78
2021/11/22 10:30:36;;;;;;;81.05;73.85;;;;;;;21.08;59.18;100870.88;4939290;28;21265;-78
2021/11/22 10:33:05;;;;;;;76.63;69.82;;;;;;;19.89;84.56;100866.41;4945847;29;20374;-80
2021/11/22 10:35:35;;;;;;;74.70;67.90;;;;;;;20.90;75.01;100864.94;4944454;29;20126;-80
2021/11/22 10:38:14;;;;;;;71.63;65.18;;;;;;;20.85;72.63;100859.56;4942563;28;20404;-79
2021/11/22 10:40:44;;;;;;;75.07;67.97;;;;;;;21.87;61.54;100856.59;4939942;29;20122;-80
2021/11/22 10:43:10;;;;;;;79.30;72.10;;;;;;;21.93;59.79;100857.41;4936954;29;20066;-78
2021/11/22 10:45:41;;;;;;;82.43;75.35;;;;;;;21.88;55.97;100852.03;4941730;29;20059;-82
2021/11/22 10:48:20;;;;;;;82.68;75.72;;;;;;;20.66;66.66;100855.78;4937647;29;20059;-79
2021/11/22 10:50:50;;;;;;;77.13;70.43;;;;;;;21.10;67.60;100852.53;4945375;28;20056;-78
2021/11/22 10:53:29;;;;;;;74.50;68.05;;;;;;;20.56;69.38;100852.00;4939111;29;20497;-78
2021/11/22 10:55:57;;;;;;;74.72;67.93;;;;;;;21.61;64.49;100847.03;4940944;29;20469;-85
2021/11/22 10:58:35;;;;;;;77.13;70.22;;;;;;;21.55;63.96;100840.81;4941519;28;20469;-79
2021/11/22 11:01:16;;;;;;;76.10;69.50;;;;;;;22.05;59.61;100838.13;4941775;29;20051;-78
2021/11/22 11:03:49;;;;;;;78.32;71.43;;;;;;;21.32;63.80;100847.59;4951667;28;20055;-79
2021/11/22 11:06:16;;;;;;;78.80;72.07;;;;;;;22.02;64.92;100847.59;4960221;28;20043;-79
2021/11/22 11:08:43;;;;;;;78.15;71.50;;;;;;;21.37;62.93;100849.53;4961384;28;20058;-79
2021/11/22 11:11:11;;;;;;;86.05;78.97;;;;;;;22.04;61.03;100845.44;4961258;28;20070;-79